Flight Track Log - Related Links

Times and Time Zones

All times are in EDT time to prevent confusion due to time zone crossing. See the SKW4664 flight status page for this flight to view local times or setup timezone preferences in your user account.


Time Position Orientation Groundspeed Altitude Reporting Facility
EDT Latitude Longitude Course Direction KTS MPH feet Rate Location/Type
Wed 10:26:01 AM 44.8222 -93.2494 235° Southwest 173 199 3,000  Level Minneapolis Center
Wed 10:27:03 AM 44.7814 -93.3131 228° Southwest 234 269 5,600 2,274 Climbing Minneapolis Center
Wed 10:28:00 AM 44.6748 -93.6505 235° Southwest  Level FlightAware Approximate
Wed 10:28:05 AM 44.7475 -93.4039 242° Southwest 271 312 7,700  Level Minneapolis Center
Wed 10:29:00 AM 44.6013 -93.7974 235° Southwest  Level FlightAware Approximate
Wed 10:29:07 AM 44.7117 -93.4997 242° Southwest 278 320 10,700  Level Minneapolis Center
Wed 10:30:00 AM 44.5178 -93.9315 230° Southwest  Level FlightAware Approximate
Wed 10:30:09 AM 44.6736 -93.6019 242° Southwest 302 348 12,500  Level Minneapolis Center
Wed 10:31:00 AM 44.4444 -94.0780 235° Southwest  Level FlightAware Approximate
Wed 10:31:11 AM 44.6222 -93.7392 242° Southwest 335 386 14,600  Level Minneapolis Center
Wed 10:32:13 AM 44.5753 -93.8589 241° Southwest 352 405 16,300 1,597 Climbing Minneapolis Center
Wed 10:33:15 AM 44.5225 -93.9772 238° Southwest 358 412 17,900 1,548 Climbing Minneapolis Center
Wed 10:34:17 AM 44.4833 -94.1047 247° West 356 410 19,500 1,403 Climbing Minneapolis Center
Wed 10:35:19 AM 44.4406 -94.2353 245° Southwest 368 423 20,800 1,113 Climbing Minneapolis Center
Wed 10:36:21 AM 44.3978 -94.3683 246° West 375 432 21,800 581 Climbing Minneapolis Center
Wed 10:37:23 AM 44.3447 -94.5297 245° Southwest 380 437 22,000 97 Climbing Minneapolis Center
Wed 10:38:25 AM 44.3053 -94.6506 246° West 374 430 22,000  Level Minneapolis Center
Wed 10:39:27 AM 44.2642 -94.7717 245° Southwest 351 404 22,000  Level Minneapolis Center
Wed 10:40:30 AM 44.2200 -94.9053 245° Southwest 320 368 22,000  Level Minneapolis Center
Wed 10:41:32 AM 44.1836 -95.0111 244° Southwest 305 351 22,000  Level Minneapolis Center
Wed 10:42:34 AM 44.1492 -95.1156 245° Southwest 299 344 22,000  Level Minneapolis Center
Wed 10:43:36 AM 44.1131 -95.2208 244° Southwest 300 345 22,000  Level Minneapolis Center
Wed 10:44:38 AM 44.0769 -95.3253 244° Southwest 300 345 22,000  Level Minneapolis Center
Wed 10:45:40 AM 44.0414 -95.4297 245° Southwest 299 344 22,000  Level Minneapolis Center
Wed 10:46:42 AM 43.9983 -95.5550 244° Southwest 299 344 22,000  Level Minneapolis Center
Wed 10:47:44 AM 43.9625 -95.6597 245° Southwest 300 345 22,000 -97 Level Minneapolis Center
Wed 10:48:46 AM 43.9258 -95.7639 244° Southwest 299 344 21,800 -1,113 Descending Minneapolis Center
Wed 10:49:48 AM 43.8892 -95.8728 245° Southwest 308 354 19,700 -1,984 Descending Minneapolis Center
Wed 10:50:50 AM 43.8514 -95.9800 244° Southwest 309 356 17,700 -1,742 Descending Minneapolis Center
Wed 10:51:52 AM 43.8158 -96.0858 245° Southwest 303 349 16,100 -1,645 Descending Minneapolis Center
Wed 10:52:54 AM 43.7825 -96.1894 246° West 296 341 14,300 -1,935 Descending Minneapolis Center
Wed 10:53:56 AM 43.7386 -96.3036 242° Southwest 284 327 12,100 -2,032 Descending Minneapolis Center
Wed 10:54:58 AM 43.6844 -96.3839 227° Southwest 287 330 10,100 -1,935 Descending Minneapolis Center
Wed 10:56:00 AM 43.6331 -96.4647 229° Southwest 283 326 8,100 -1,920 Descending Minneapolis Center
Wed 10:57:03 AM 43.5828 -96.5450 229° Southwest 280 322 6,100 -1,905 Descending Minneapolis Center

Login

Don't have an account? Register now (free) for customized features, flight alerts, and more!